CheckWX is a tool to help pilots better visualize weather data.  It is not intended as a substitute for an official pre-flight weather briefing.

07:39:24 UTC

KMCC METAR
Mc Clellan Airfield Airport
Sacramento, California, USA
Current

19 mins ago

KMCC 210720Z AUTO 18015KT 9SM SCT023 BKN065 OVC075 13/09 A2994 RMK AO2
Observed
May-21 @ 07:20 UTC
Wind
  • 180° at 15 KTS
Visibility
9 SM
Flight Rules
VFR
Cloud Levels
  • Scattered at 2,300' AGL
  • Broken at 6,500' AGL
  • Overcast at 7,500' AGL
Temperature
13°C / 55°F
Dewpoint
C / 48°F
Humidity
77%
Altimeter
29.94" Hg
Pressure
1013.92 hPa
Previous

39 mins ago

KMCC 210700Z AUTO 17010KT 10SM BKN023 BKN075 OVC095 13/09 A2995 RMK AO2
Observed
May-21 @ 07:00 UTC
Wind
  • 170° at 10 KTS
Visibility
10 SM
Flight Rules
MVFR
Cloud Levels
  • Broken at 2,300' AGL
  • Broken at 7,500' AGL
  • Overcast at 9,500' AGL
Temperature
13°C / 55°F
Dewpoint
C / 48°F
Humidity
77%
Altimeter
29.95" Hg
Pressure
1014.22 hPa
Previous

59 mins ago

KMCC 210640Z AUTO 18012KT 10SM FEW070 SCT095 13/09 A2995 RMK AO2
Observed
May-21 @ 06:40 UTC
Wind
  • 180° at 12 KTS
Visibility
10 SM
Flight Rules
VFR
Cloud Levels
  • Few at 7,000' AGL
  • Scattered at 9,500' AGL
Temperature
13°C / 55°F
Dewpoint
C / 48°F
Humidity
77%
Altimeter
29.95" Hg
Pressure
1014.22 hPa